Terminal Aerodrome Forecast
Issued by NWS

Home | Current Version | Previous Version | Text Only | Print | Product List | Glossary On
Versions: 1 2 3 4 5 6 7 8 9 10 11 12 13 14 15 16 17 18 19 20
608
FTUS46 KPDT 122340 CCA
TAFBDN
TAF COR
KBDN 122340Z 1300/1324 33012G18KT P6SM VCSH BKN070
     FM130300 VRB05KT P6SM BKN060
     FM131500 21006KT P6SM SCT090 SCT200
     FM132100 22011KT P6SM BKN080=

USA.gov is the U.S. government's official web portal to all federal, state and local government web resources and services.